Terminal Aerodrome Forecast
Issued by NWS

Home | Current Version | Previous Version | Graphics & Text | Print | Product List | Glossary On
Versions: 1 2 3 4 5 6 7 8 9 10 11 12 13 14 15 16 17 18 19 20 21 22 23 24 25
000
FTUS43 KBIS 011656 AAA
TAFDIK
TAF AMD
KDIK 011656Z 0117/0212 05004KT 5SM BR OVC008
      TEMPO 0117/0121 BKN025
     FM012100 36007KT P6SM SCT050
     FM020300 05005KT P6SM SKC=

USA.gov is the U.S. government's official web portal to all federal, state and local government web resources and services.